LFSI 230730Z AUTO VRB02KT CAVOK 21/13 Q1018

ElémentsDécodage
LFSI Station météo située sur l'aérodrome de SAINT-DIZIER Robinson
230730Z émis le 23 du mois à 07h30 UTC
AUTO Bulletin édité par un automate
VRB02KT vent de direction variable, 02 noeuds
CAVOK Ceiling And Visibility OK
- Visibilité de 10 Km ou plus
- Pas de nuage au-dessous de 1500m ou au-dessous de l'altitude minimale du secteur la plus élevée (si>1500m) et absence de CB
- pas de temps présent significatif
21/13 température 21°C, point de rosée 13°C
 soit une humidité relative de 60%
Q1018 la pression au niveau de la mer (QNH) est de 1018 hPa